sensor_id;sensor_type;location;lat;lon;timestamp;pressure;altitude;pressure_sealevel;temperature;humidity
22389;BME280;11362;48.102;11.620;2024-02-15T00:01:46;95700.84;;;24.60;36.46
22389;BME280;11362;48.102;11.620;2024-02-15T00:04:11;95698.13;;;24.53;36.60
22389;BME280;11362;48.102;11.620;2024-02-15T00:06:37;95709.53;;;24.62;36.50
22389;BME280;11362;48.102;11.620;2024-02-15T00:09:02;95711.91;;;24.64;36.56
22389;BME280;11362;48.102;11.620;2024-02-15T00:11:28;95716.72;;;24.60;36.44
22389;BME280;11362;48.102;11.620;2024-02-15T00:13:53;95714.38;;;24.55;36.35
22389;BME280;11362;48.102;11.620;2024-02-15T00:16:18;95701.28;;;24.55;36.43
22389;BME280;11362;48.102;11.620;2024-02-15T00:18:44;95706.81;;;24.59;36.19
22389;BME280;11362;48.102;11.620;2024-02-15T00:21:09;95701.25;;;24.59;36.17
22389;BME280;11362;48.102;11.620;2024-02-15T00:23:34;95701.69;;;24.57;36.41
22389;BME280;11362;48.102;11.620;2024-02-15T00:25:59;95699.69;;;24.58;36.25
22389;BME280;11362;48.102;11.620;2024-02-15T00:28:25;95690.97;;;24.56;36.38
22389;BME280;11362;48.102;11.620;2024-02-15T00:30:50;95698.84;;;24.64;36.44
22389;BME280;11362;48.102;11.620;2024-02-15T00:33:15;95703.59;;;24.64;36.23
22389;BME280;11362;48.102;11.620;2024-02-15T00:35:41;95702.41;;;24.61;36.35
22389;BME280;11362;48.102;11.620;2024-02-15T00:38:06;95704.03;;;24.59;36.42
22389;BME280;11362;48.102;11.620;2024-02-15T00:40:31;95707.25;;;24.57;36.25
22389;BME280;11362;48.102;11.620;2024-02-15T00:42:56;95702.47;;;24.58;36.27
22389;BME280;11362;48.102;11.620;2024-02-15T00:45:22;95693.34;;;24.57;36.32
22389;BME280;11362;48.102;11.620;2024-02-15T00:47:47;95688.56;;;24.58;36.37
22389;BME280;11362;48.102;11.620;2024-02-15T00:50:12;95696.50;;;24.59;36.35
22389;BME280;11362;48.102;11.620;2024-02-15T00:52:38;95690.94;;;24.59;36.18
22389;BME280;11362;48.102;11.620;2024-02-15T00:55:03;95697.69;;;24.58;36.14
22389;BME280;11362;48.102;11.620;2024-02-15T00:57:28;95705.19;;;24.61;36.24
22389;BME280;11362;48.102;11.620;2024-02-15T00:59:54;95706.41;;;24.60;36.23
22389;BME280;11362;48.102;11.620;2024-02-15T01:02:19;95704.84;;;24.59;36.28
22389;BME280;11362;48.102;11.620;2024-02-15T01:04:44;95701.25;;;24.59;36.35
22389;BME280;11362;48.102;11.620;2024-02-15T01:07:10;95701.69;;;24.57;36.28
22389;BME280;11362;48.102;11.620;2024-02-15T01:09:35;95705.59;;;24.60;36.59
22389;BME280;11362;48.102;11.620;2024-02-15T01:12:00;95703.63;;;24.60;36.17
22389;BME280;11362;48.102;11.620;2024-02-15T01:14:26;95702.06;;;24.59;36.33
22389;BME280;11362;48.102;11.620;2024-02-15T01:16:51;95698.09;;;24.57;36.22
22389;BME280;11362;48.102;11.620;2024-02-15T01:19:16;95704.03;;;24.59;36.18
22389;BME280;11362;48.102;11.620;2024-02-15T01:21:41;95702.06;;;24.59;36.07
22389;BME280;11362;48.102;11.620;2024-02-15T01:24:07;95698.91;;;24.57;36.10
22389;BME280;11362;48.102;11.620;2024-02-15T01:26:32;95706.03;;;24.55;36.26
22389;BME280;11362;48.102;11.620;2024-02-15T01:28:58;95710.03;;;24.57;36.09
22389;BME280;11362;48.102;11.620;2024-02-15T01:31:23;95697.69;;;24.58;36.17
22389;BME280;11362;48.102;11.620;2024-02-15T01:33:48;95701.69;;;24.57;36.11
22389;BME280;11362;48.102;11.620;2024-02-15T01:36:15;95704.47;;;24.57;36.12
22389;BME280;11362;48.102;11.620;2024-02-15T01:38:40;95698.06;;;24.60;36.00
22389;BME280;11362;48.102;11.620;2024-02-15T01:41:06;95704.44;;;24.61;35.98
22389;BME280;11362;48.102;11.620;2024-02-15T01:43:31;95687.75;;;24.61;36.15
22389;BME280;11362;48.102;11.620;2024-02-15T01:45:56;95692.50;;;24.60;36.02
22389;BME280;11362;48.102;11.620;2024-02-15T01:48:22;95683.38;;;24.60;35.98
22389;BME280;11362;48.102;11.620;2024-02-15T01:50:47;95684.97;;;24.61;36.06
22389;BME280;11362;48.102;11.620;2024-02-15T01:53:13;95692.50;;;24.60;36.00
22389;BME280;11362;48.102;11.620;2024-02-15T01:55:38;95688.56;;;24.58;35.95
22389;BME280;11362;48.102;11.620;2024-02-15T01:58:04;95681.81;;;24.59;35.83
22389;BME280;11362;48.102;11.620;2024-02-15T02:00:30;95684.63;;;24.55;35.99
22389;BME280;11362;48.102;11.620;2024-02-15T02:02:56;95691.34;;;24.54;35.98
22389;BME280;11362;48.102;11.620;2024-02-15T02:05:22;95691.34;;;24.54;36.06
22389;BME280;11362;48.102;11.620;2024-02-15T02:07:47;95682.59;;;24.59;35.91
22389;BME280;11362;48.102;11.620;2024-02-15T02:10:12;95683.38;;;24.60;35.88
22389;BME280;11362;48.102;11.620;2024-02-15T02:12:38;95680.59;;;24.60;35.98
22389;BME280;11362;48.102;11.620;2024-02-15T02:15:09;95677.81;;;24.60;35.87
22389;BME280;11362;48.102;11.620;2024-02-15T02:17:34;95667.50;;;24.60;35.73
22389;BME280;11362;48.102;11.620;2024-02-15T02:19:59;95675.06;;;24.60;35.80
22389;BME280;11362;48.102;11.620;2024-02-15T02:22:25;95672.28;;;24.60;35.76
22389;BME280;11362;48.102;11.620;2024-02-15T02:25:08;95674.28;;;24.59;35.71
22389;BME280;11362;48.102;11.620;2024-02-15T02:27:35;95669.94;;;24.58;35.77
22389;BME280;11362;48.102;11.620;2024-02-15T02:30:03;95674.28;;;24.59;35.76
22389;BME280;11362;48.102;11.620;2024-02-15T02:32:28;95677.88;;;24.56;35.67
22389;BME280;11362;48.102;11.620;2024-02-15T02:34:53;95675.06;;;24.60;35.67
22389;BME280;11362;48.102;11.620;2024-02-15T02:37:19;95669.53;;;24.56;35.77
22389;BME280;11362;48.102;11.620;2024-02-15T02:39:44;95668.72;;;24.59;35.80
22389;BME280;11362;48.102;11.620;2024-02-15T02:42:09;95660.38;;;24.59;35.71
22389;BME280;11362;48.102;11.620;2024-02-15T02:44:34;95667.91;;;24.59;35.71
22389;BME280;11362;48.102;11.620;2024-02-15T02:47:00;95673.47;;;24.59;35.86
22389;BME280;11362;48.102;11.620;2024-02-15T02:49:25;95672.72;;;24.58;35.74
22389;BME280;11362;48.102;11.620;2024-02-15T02:51:50;95670.34;;;24.57;35.70
22389;BME280;11362;48.102;11.620;2024-02-15T02:54:16;95665.56;;;24.57;35.73
22389;BME280;11362;48.102;11.620;2024-02-15T02:56:41;95665.94;;;24.59;35.74
22389;BME280;11362;48.102;11.620;2024-02-15T02:59:06;95659.97;;;24.61;35.63
22389;BME280;11362;48.102;11.620;2024-02-15T03:01:31;95657.97;;;24.61;35.59
22389;BME280;11362;48.102;11.620;2024-02-15T03:03:57;95656.00;;;24.62;35.61
22389;BME280;11362;48.102;11.620;2024-02-15T03:06:22;95655.25;;;24.58;35.65
22389;BME280;11362;48.102;11.620;2024-02-15T03:08:47;95659.22;;;24.57;35.82
22389;BME280;11362;48.102;11.620;2024-02-15T03:11:13;95662.81;;;24.57;35.64
22389;BME280;11362;48.102;11.620;2024-02-15T03:13:38;95660.81;;;24.54;35.74
22389;BME280;11362;48.102;11.620;2024-02-15T03:16:03;95662.81;;;24.54;35.70
22389;BME280;11362;48.102;11.620;2024-02-15T03:18:29;95665.59;;;24.54;35.70
22389;BME280;11362;48.102;11.620;2024-02-15T03:20:54;95665.97;;;24.56;35.79
22389;BME280;11362;48.102;11.620;2024-02-15T03:23:20;95664.78;;;24.57;35.80
22389;BME280;11362;48.102;11.620;2024-02-15T03:25:45;95669.13;;;24.54;35.47
22389;BME280;11362;48.102;11.620;2024-02-15T03:28:10;95667.97;;;24.55;35.63
22389;BME280;11362;48.102;11.620;2024-02-15T03:30:36;95668.34;;;24.57;35.76
22389;BME280;11362;48.102;11.620;2024-02-15T03:33:01;95673.50;;;24.55;35.62
22389;BME280;11362;48.102;11.620;2024-02-15T03:35:27;95673.50;;;24.55;35.65
22389;BME280;11362;48.102;11.620;2024-02-15T03:37:53;95665.56;;;24.57;35.60
22389;BME280;11362;48.102;11.620;2024-02-15T03:40:19;95660.44;;;24.56;35.61
22389;BME280;11362;48.102;11.620;2024-02-15T03:42:45;95668.75;;;24.56;35.57
22389;BME280;11362;48.102;11.620;2024-02-15T03:45:11;95671.13;;;24.57;35.60
22389;BME280;11362;48.102;11.620;2024-02-15T03:47:36;95637.81;;;24.57;35.44
22389;BME280;11362;48.102;11.620;2024-02-15T03:50:02;95625.94;;;24.50;35.54
22389;BME280;11362;48.102;11.620;2024-02-15T03:52:28;95647.31;;;24.56;35.53
22389;BME280;11362;48.102;11.620;2024-02-15T03:54:53;95644.53;;;24.56;35.50
22389;BME280;11362;48.102;11.620;2024-02-15T03:57:18;95641.72;;;24.60;35.52
22389;BME280;11362;48.102;11.620;2024-02-15T03:59:44;95650.50;;;24.55;35.50
22389;BME280;11362;48.102;11.620;2024-02-15T04:02:09;95671.13;;;24.57;35.47
22389;BME280;11362;48.102;11.620;2024-02-15T04:04:34;95674.28;;;24.59;35.45
22389;BME280;11362;48.102;11.620;2024-02-15T04:07:00;95677.47;;;24.58;35.32
22389;BME280;11362;48.102;11.620;2024-02-15T04:09:25;95669.13;;;24.58;35.48
22389;BME280;11362;48.102;11.620;2024-02-15T04:11:50;95669.13;;;24.58;35.45
22389;BME280;11362;48.102;11.620;2024-02-15T04:14:16;95671.13;;;24.57;35.39
22389;BME280;11362;48.102;11.620;2024-02-15T04:16:41;95673.91;;;24.57;35.80
22389;BME280;11362;48.102;11.620;2024-02-15T04:19:07;95670.34;;;24.57;36.05
22389;BME280;11362;48.102;11.620;2024-02-15T04:21:32;95660.81;;;24.54;35.68
22389;BME280;11362;48.102;11.620;2024-02-15T04:23:57;95676.59;;;24.64;35.63
22389;BME280;11362;48.102;11.620;2024-02-15T04:26:23;95669.50;;;24.60;35.79
22389;BME280;11362;48.102;11.620;2024-02-15T04:28:48;95669.44;;;24.63;35.55
22389;BME280;11362;48.102;11.620;2024-02-15T04:31:14;95677.38;;;24.65;35.59
22389;BME280;11362;48.102;11.620;2024-02-15T04:33:39;95681.00;;;24.62;35.56
22389;BME280;11362;48.102;11.620;2024-02-15T04:36:04;95677.47;;;24.58;35.65
22389;BME280;11362;48.102;11.620;2024-02-15T04:38:30;95683.78;;;24.62;35.50
22389;BME280;11362;48.102;11.620;2024-02-15T04:40:55;95677.00;;;24.63;35.51
22389;BME280;11362;48.102;11.620;2024-02-15T04:43:20;95679.47;;;24.57;35.61
22389;BME280;11362;48.102;11.620;2024-02-15T04:45:45;95682.59;;;24.59;35.49
22389;BME280;11362;48.102;11.620;2024-02-15T04:48:11;95679.84;;;24.59;35.57
22389;BME280;11362;48.102;11.620;2024-02-15T04:50:36;95677.41;;;24.61;35.43
22389;BME280;11362;48.102;11.620;2024-02-15T04:53:02;95681.38;;;24.64;35.58
22389;BME280;11362;48.102;11.620;2024-02-15T04:55:27;95686.16;;;24.60;35.41
22389;BME280;11362;48.102;11.620;2024-02-15T04:57:52;95686.50;;;24.65;35.46
22389;BME280;11362;48.102;11.620;2024-02-15T05:00:18;95680.56;;;24.63;35.43
22389;BME280;11362;48.102;11.620;2024-02-15T05:02:43;95679.38;;;24.64;35.50
22389;BME280;11362;48.102;11.620;2024-02-15T05:05:09;95682.22;;;24.61;35.41
22389;BME280;11362;48.102;11.620;2024-02-15T05:07:35;95679.84;;;24.59;35.44
22389;BME280;11362;48.102;11.620;2024-02-15T05:10:00;95679.47;;;24.57;35.39
22389;BME280;11362;48.102;11.620;2024-02-15T05:12:25;95676.69;;;24.57;35.29
22389;BME280;11362;48.102;11.620;2024-02-15T05:14:51;95676.69;;;24.57;35.22
22389;BME280;11362;48.102;11.620;2024-02-15T05:17:17;95665.97;;;24.56;35.36
22389;BME280;11362;48.102;11.620;2024-02-15T05:19:42;95665.56;;;24.57;35.05
22389;BME280;11362;48.102;11.620;2024-02-15T05:22:07;95647.31;;;24.56;35.42
22389;BME280;11362;48.102;11.620;2024-02-15T05:24:33;95644.13;;;24.58;35.07
22389;BME280;11362;48.102;11.620;2024-02-15T05:26:58;95657.63;;;24.59;35.01
22389;BME280;11362;48.102;11.620;2024-02-15T05:29:23;95641.72;;;24.60;35.04
22389;BME280;11362;48.102;11.620;2024-02-15T05:31:49;95656.38;;;24.64;35.00
22389;BME280;11362;48.102;11.620;2024-02-15T05:34:14;95650.41;;;24.65;35.01
22389;BME280;11362;48.102;11.620;2024-02-15T05:36:39;95651.97;;;24.66;34.87
22389;BME280;11362;48.102;11.620;2024-02-15T05:39:05;95649.97;;;24.67;34.94
22389;BME280;11362;48.102;11.620;2024-02-15T05:41:30;95655.97;;;24.65;34.92
22389;BME280;11362;48.102;11.620;2024-02-15T05:43:56;95658.78;;;24.62;34.94
22389;BME280;11362;48.102;11.620;2024-02-15T05:46:21;95657.56;;;24.63;34.90
22389;BME280;11362;48.102;11.620;2024-02-15T05:48:47;95660.75;;;24.61;34.85
22389;BME280;11362;48.102;11.620;2024-02-15T05:51:12;95656.00;;;24.62;34.74
22389;BME280;11362;48.102;11.620;2024-02-15T05:53:38;95658.34;;;24.63;34.68
22389;BME280;11362;48.102;11.620;2024-02-15T05:56:05;95656.78;;;24.62;34.78
22389;BME280;11362;48.102;11.620;2024-02-15T05:58:31;95653.63;;;24.60;34.85
22389;BME280;11362;48.102;11.620;2024-02-15T06:00:56;95654.47;;;24.57;34.79
22389;BME280;11362;48.102;11.620;2024-02-15T06:03:21;95654.84;;;24.59;34.77
22389;BME280;11362;48.102;11.620;2024-02-15T06:05:46;95650.84;;;24.60;34.77
22389;BME280;11362;48.102;11.620;2024-02-15T06:08:12;95652.06;;;24.59;34.71
22389;BME280;11362;48.102;11.620;2024-02-15T06:10:38;95656.03;;;24.58;34.81
22389;BME280;11362;48.102;11.620;2024-02-15T06:13:03;95648.47;;;24.59;34.68
22389;BME280;11362;48.102;11.620;2024-02-15T06:15:29;95643.38;;;24.57;34.76
22389;BME280;11362;48.102;11.620;2024-02-15T06:17:54;95652.88;;;24.56;34.60
22389;BME280;11362;48.102;11.620;2024-02-15T06:20:19;95656.84;;;24.55;34.69
22389;BME280;11362;48.102;11.620;2024-02-15T06:22:48;95660.03;;;24.54;34.60
22389;BME280;11362;48.102;11.620;2024-02-15T06:25:13;95660.03;;;24.54;34.61
22389;BME280;11362;48.102;11.620;2024-02-15T06:27:38;95661.59;;;24.55;34.76
22389;BME280;11362;48.102;11.620;2024-02-15T06:30:04;95663.22;;;24.56;34.63
22389;BME280;11362;48.102;11.620;2024-02-15T06:32:30;95660.38;;;24.59;35.20
22389;BME280;11362;48.102;11.620;2024-02-15T06:34:55;95669.50;;;24.60;35.41
22389;BME280;11362;48.102;11.620;2024-02-15T06:37:35;95671.88;;;24.61;35.24
22389;BME280;11362;48.102;11.620;2024-02-15T06:40:00;95673.44;;;24.62;35.52
22389;BME280;11362;48.102;11.620;2024-02-15T06:42:25;95677.78;;;24.63;35.58
22389;BME280;11362;48.102;11.620;2024-02-15T06:44:51;95681.78;;;24.62;35.72
22389;BME280;11362;48.102;11.620;2024-02-15T06:47:16;95670.28;;;24.60;35.90
22389;BME280;11362;48.102;11.620;2024-02-15T06:49:42;95684.50;;;24.66;36.05
22389;BME280;11362;48.102;11.620;2024-02-15T06:52:08;95695.63;;;24.66;36.04
22389;BME280;11362;48.102;11.620;2024-02-15T06:54:34;95694.81;;;24.69;36.23
22389;BME280;11362;48.102;11.620;2024-02-15T06:57:00;95696.03;;;24.68;36.17
22389;BME280;11362;48.102;11.620;2024-02-15T06:59:25;95698.34;;;24.69;36.26
22389;BME280;11362;48.102;11.620;2024-02-15T07:01:50;95694.00;;;24.68;36.57
22389;BME280;11362;48.102;11.620;2024-02-15T07:04:15;95699.53;;;24.72;36.52
22389;BME280;11362;48.102;11.620;2024-02-15T07:06:41;95696.38;;;24.70;36.37
22389;BME280;11362;48.102;11.620;2024-02-15T07:09:06;95702.72;;;24.70;36.10
22389;BME280;11362;48.102;11.620;2024-02-15T07:11:32;95699.53;;;24.72;36.40
22389;BME280;11362;48.102;11.620;2024-02-15T07:13:58;95687.66;;;24.71;36.51
22389;BME280;11362;48.102;11.620;2024-02-15T07:16:23;95687.66;;;24.71;36.39
22389;BME280;11362;48.102;11.620;2024-02-15T07:18:48;95699.56;;;24.68;36.63
22389;BME280;11362;48.102;11.620;2024-02-15T07:21:14;95697.16;;;24.70;36.44
22389;BME280;11362;48.102;11.620;2024-02-15T07:23:42;95694.78;;;24.72;36.42
22389;BME280;11362;48.102;11.620;2024-02-15T07:26:08;95697.56;;;24.72;36.63
22389;BME280;11362;48.102;11.620;2024-02-15T07:28:34;95697.91;;;24.74;36.63
22389;BME280;11362;48.102;11.620;2024-02-15T07:30:59;95677.25;;;24.75;36.47
22389;BME280;11362;48.102;11.620;2024-02-15T07:33:24;95655.44;;;24.74;36.25
22389;BME280;11362;48.102;11.620;2024-02-15T07:35:50;95657.44;;;24.73;36.43
22389;BME280;11362;48.102;11.620;2024-02-15T07:38:15;95650.31;;;24.72;36.30
22389;BME280;11362;48.102;11.620;2024-02-15T07:40:41;95655.06;;;24.72;36.21
22389;BME280;11362;48.102;11.620;2024-02-15T07:43:07;95675.69;;;24.74;36.43
22389;BME280;11362;48.102;11.620;2024-02-15T07:45:33;95674.16;;;24.70;36.69
22389;BME280;11362;48.102;11.620;2024-02-15T07:47:58;95672.91;;;24.74;36.77
22389;BME280;11362;48.102;11.620;2024-02-15T07:50:23;95654.63;;;24.77;36.70
22389;BME280;11362;48.102;11.620;2024-02-15T07:52:49;95612.16;;;24.76;36.71
22389;BME280;11362;48.102;11.620;2024-02-15T07:55:14;95614.13;;;24.79;36.53
22389;BME280;11362;48.102;11.620;2024-02-15T07:57:40;95599.41;;;24.79;36.58
22389;BME280;11362;48.102;11.620;2024-02-15T08:00:06;95595.13;;;24.74;36.21
22389;BME280;11362;48.102;11.620;2024-02-15T08:02:32;95599.47;;;24.75;36.23
22389;BME280;11362;48.102;11.620;2024-02-15T08:04:57;95639.06;;;24.83;35.96
22389;BME280;11362;48.102;11.620;2024-02-15T08:07:22;95633.53;;;24.83;36.04
22389;BME280;11362;48.102;11.620;2024-02-15T08:09:48;95635.13;;;24.80;35.76
22389;BME280;11362;48.102;11.620;2024-02-15T08:12:13;95635.09;;;24.84;35.76
22389;BME280;11362;48.102;11.620;2024-02-15T08:14:38;95639.13;;;24.79;35.88
22389;BME280;11362;48.102;11.620;2024-02-15T08:17:04;95633.56;;;24.79;35.79
22389;BME280;11362;48.102;11.620;2024-02-15T08:19:29;95628.72;;;24.83;35.58
22389;BME280;11362;48.102;11.620;2024-02-15T08:21:54;95631.50;;;24.83;35.75
22389;BME280;11362;48.102;11.620;2024-02-15T08:24:19;95627.97;;;24.83;35.65
22389;BME280;11362;48.102;11.620;2024-02-15T08:26:45;95615.31;;;24.78;35.51
22389;BME280;11362;48.102;11.620;2024-02-15T08:29:11;95618.06;;;24.82;35.18
22389;BME280;11362;48.102;11.620;2024-02-15T08:31:36;95612.09;;;24.80;35.70
22389;BME280;11362;48.102;11.620;2024-02-15T08:34:02;95622.34;;;24.86;35.30
22389;BME280;11362;48.102;11.620;2024-02-15T08:36:27;95612.44;;;24.85;35.29
22389;BME280;11362;48.102;11.620;2024-02-15T08:38:54;95607.72;;;24.82;35.54
22389;BME280;11362;48.102;11.620;2024-02-15T08:41:19;95615.22;;;24.85;35.22
22389;BME280;11362;48.102;11.620;2024-02-15T08:43:46;95606.50;;;24.83;35.36
22389;BME280;11362;48.102;11.620;2024-02-15T08:46:11;95607.13;;;24.98;35.19
22389;BME280;11362;48.102;11.620;2024-02-15T08:48:36;95606.00;;;24.92;35.05
22389;BME280;11362;48.102;11.620;2024-02-15T08:51:02;95605.63;;;24.90;35.09
22389;BME280;11362;48.102;11.620;2024-02-15T08:53:27;95599.28;;;24.89;35.18
22389;BME280;11362;48.102;11.620;2024-02-15T08:55:53;95602.06;;;24.89;35.11
22389;BME280;11362;48.102;11.620;2024-02-15T08:58:21;95606.31;;;24.97;34.91
22389;BME280;11362;48.102;11.620;2024-02-15T09:00:47;95610.31;;;24.96;34.98
22389;BME280;11362;48.102;11.620;2024-02-15T09:03:12;95604.75;;;24.96;34.83
22389;BME280;11362;48.102;11.620;2024-02-15T09:05:38;95609.44;;;24.99;34.96
22389;BME280;11362;48.102;11.620;2024-02-15T09:08:04;95614.56;;;25.04;34.77
22389;BME280;11362;48.102;11.620;2024-02-15T09:10:29;95606.66;;;24.99;34.76
22389;BME280;11362;48.102;11.620;2024-02-15T09:12:55;95602.72;;;25.00;34.82
22389;BME280;11362;48.102;11.620;2024-02-15T09:15:20;95597.94;;;25.01;34.85
22389;BME280;11362;48.102;11.620;2024-02-15T09:17:46;95598.28;;;25.03;35.17
22389;BME280;11362;48.102;11.620;2024-02-15T09:20:12;95560.16;;;25.03;34.95
22389;BME280;11362;48.102;11.620;2024-02-15T09:22:38;95595.91;;;25.05;35.12
22389;BME280;11362;48.102;11.620;2024-02-15T09:25:03;95648.66;;;25.08;34.75
22389;BME280;11362;48.102;11.620;2024-02-15T09:27:29;95613.72;;;25.07;34.63
22389;BME280;11362;48.102;11.620;2024-02-15T09:29:54;95614.16;;;25.06;34.26
22389;BME280;11362;48.102;11.620;2024-02-15T09:32:19;95613.34;;;25.05;34.32
22389;BME280;11362;48.102;11.620;2024-02-15T09:34:45;95602.66;;;25.04;34.55
22389;BME280;11362;48.102;11.620;2024-02-15T09:37:10;95607.41;;;25.03;34.51
22389;BME280;11362;48.102;11.620;2024-02-15T09:39:36;95607.38;;;25.07;34.72
22389;BME280;11362;48.102;11.620;2024-02-15T09:42:02;95604.59;;;25.07;34.80
22389;BME280;11362;48.102;11.620;2024-02-15T09:44:27;95601.41;;;25.08;34.99
22389;BME280;11362;48.102;11.620;2024-02-15T09:47:04;95599.78;;;25.11;35.13
22389;BME280;11362;48.102;11.620;2024-02-15T09:49:36;95594.19;;;25.14;35.20
22389;BME280;11362;48.102;11.620;2024-02-15T09:52:03;95590.59;;;25.14;35.40
22389;BME280;11362;48.102;11.620;2024-02-15T09:54:30;95579.53;;;25.10;35.16
22389;BME280;11362;48.102;11.620;2024-02-15T09:56:56;95558.03;;;25.14;35.64
22389;BME280;11362;48.102;11.620;2024-02-15T09:59:25;95554.41;;;25.17;35.24
22389;BME280;11362;48.102;11.620;2024-02-15T10:01:52;95548.44;;;25.19;35.60
22389;BME280;11362;48.102;11.620;2024-02-15T10:04:21;95617.09;;;25.22;35.35
22389;BME280;11362;48.102;11.620;2024-02-15T10:06:46;95606.78;;;25.22;35.54
22389;BME280;11362;48.102;11.620;2024-02-15T10:09:28;95602.41;;;25.21;35.32
22389;BME280;11362;48.102;11.620;2024-02-15T10:11:58;95601.59;;;25.24;34.75
22389;BME280;11362;48.102;11.620;2024-02-15T10:14:29;95605.97;;;25.22;34.54
22389;BME280;11362;48.102;11.620;2024-02-15T10:16:55;95596.47;;;25.19;33.76
22389;BME280;11362;48.102;11.620;2024-02-15T10:19:21;95600.81;;;25.20;33.28
22389;BME280;11362;48.102;11.620;2024-02-15T10:21:46;95606.38;;;25.20;33.09
22389;BME280;11362;48.102;11.620;2024-02-15T10:24:12;95584.63;;;25.15;32.81
22389;BME280;11362;48.102;11.620;2024-02-15T10:26:37;95559.16;;;25.17;32.56
22389;BME280;11362;48.102;11.620;2024-02-15T10:29:09;95556.13;;;25.08;32.42
22389;BME280;11362;48.102;11.620;2024-02-15T10:31:35;95548.09;;;25.13;32.45
22389;BME280;11362;48.102;11.620;2024-02-15T10:34:05;95551.63;;;25.17;32.55
22389;BME280;11362;48.102;11.620;2024-02-15T10:36:31;95549.19;;;25.19;32.64
22389;BME280;11362;48.102;11.620;2024-02-15T10:41:38;95540.06;;;25.22;32.98
22389;BME280;11362;48.102;11.620;2024-02-15T10:44:04;95537.66;;;25.21;32.68
22389;BME280;11362;48.102;11.620;2024-02-15T10:46:30;95531.66;;;25.26;32.97
22389;BME280;11362;48.102;11.620;2024-02-15T10:48:55;95527.22;;;25.28;33.37
22389;BME280;11362;48.102;11.620;2024-02-15T10:51:21;95529.66;;;25.26;33.45
22389;BME280;11362;48.102;11.620;2024-02-15T10:53:57;95540.66;;;25.33;32.54
22389;BME280;11362;48.102;11.620;2024-02-15T10:56:27;95544.53;;;25.13;30.92
22389;BME280;11362;48.102;11.620;2024-02-15T10:59:11;95546.16;;;25.10;30.46
22389;BME280;11362;48.102;11.620;2024-02-15T11:01:40;95521.13;;;24.87;29.77
22389;BME280;11362;48.102;11.620;2024-02-15T11:04:07;95507.38;;;24.77;30.68
22389;BME280;11362;48.102;11.620;2024-02-15T11:06:35;95506.66;;;24.96;31.16
22389;BME280;11362;48.102;11.620;2024-02-15T11:09:03;95495.88;;;25.01;31.10
22389;BME280;11362;48.102;11.620;2024-02-15T11:11:29;95491.03;;;25.05;30.87
22389;BME280;11362;48.102;11.620;2024-02-15T11:14:28;95458.72;;;25.15;31.16
22389;BME280;11362;48.102;11.620;2024-02-15T11:16:54;95458.31;;;25.16;31.05
22389;BME280;11362;48.102;11.620;2024-02-15T11:22:00;95446.91;;;25.11;31.38
22389;BME280;11362;48.102;11.620;2024-02-15T11:24:26;95475.00;;;25.16;31.79
22389;BME280;11362;48.102;11.620;2024-02-15T11:26:58;95468.69;;;25.12;32.00
22389;BME280;11362;48.102;11.620;2024-02-15T11:29:49;95469.84;;;25.15;32.22
22389;BME280;11362;48.102;11.620;2024-02-15T11:32:36;95440.78;;;25.19;32.43
22389;BME280;11362;48.102;11.620;2024-02-15T11:35:03;95437.56;;;25.21;32.34
22389;BME280;11362;48.102;11.620;2024-02-15T11:40:15;95416.91;;;25.22;32.45
22389;BME280;11362;48.102;11.620;2024-02-15T11:42:40;95426.00;;;25.26;32.46
22389;BME280;11362;48.102;11.620;2024-02-15T11:45:06;95416.88;;;25.25;32.47
22389;BME280;11362;48.102;11.620;2024-02-15T11:47:32;95437.50;;;25.28;32.58
22389;BME280;11362;48.102;11.620;2024-02-15T11:49:59;95449.38;;;25.28;32.98
22389;BME280;11362;48.102;11.620;2024-02-15T11:52:25;95410.09;;;25.26;33.07
22389;BME280;11362;48.102;11.620;2024-02-15T11:54:50;95402.97;;;25.25;32.93
22389;BME280;11362;48.102;11.620;2024-02-15T11:57:15;95393.00;;;25.28;32.57
22389;BME280;11362;48.102;11.620;2024-02-15T11:59:42;95382.28;;;25.26;32.76
22389;BME280;11362;48.102;11.620;2024-02-15T12:02:07;95384.94;;;25.33;32.93
22389;BME280;11362;48.102;11.620;2024-02-15T12:04:33;95417.91;;;25.35;32.80
22389;BME280;11362;48.102;11.620;2024-02-15T12:06:58;95419.47;;;25.36;32.92
22389;BME280;11362;48.102;11.620;2024-02-15T12:09:24;95412.34;;;25.35;33.00
22389;BME280;11362;48.102;11.620;2024-02-15T12:11:57;95406.78;;;25.35;32.80
22389;BME280;11362;48.102;11.620;2024-02-15T12:14:24;95403.25;;;25.31;32.83
22389;BME280;11362;48.102;11.620;2024-02-15T12:17:11;95404.41;;;25.33;33.21
22389;BME280;11362;48.102;11.620;2024-02-15T12:19:37;95400.94;;;25.29;32.94
22389;BME280;11362;48.102;11.620;2024-02-15T12:22:02;95404.13;;;25.28;33.06
22389;BME280;11362;48.102;11.620;2024-02-15T12:24:27;95394.63;;;25.25;33.32
22389;BME280;11362;48.102;11.620;2024-02-15T12:27:00;95394.56;;;25.29;33.30
22389;BME280;11362;48.102;11.620;2024-02-15T12:29:25;95394.63;;;25.25;33.36
22389;BME280;11362;48.102;11.620;2024-02-15T12:31:50;95389.94;;;25.22;33.26
22389;BME280;11362;48.102;11.620;2024-02-15T12:34:20;95382.78;;;25.21;33.21
22389;BME280;11362;48.102;11.620;2024-02-15T12:36:45;95378.41;;;25.20;33.27
22389;BME280;11362;48.102;11.620;2024-02-15T12:39:11;95380.13;;;25.14;33.25
22389;BME280;11362;48.102;11.620;2024-02-15T12:41:41;95376.13;;;25.15;33.23
22389;BME280;11362;48.102;11.620;2024-02-15T12:44:07;95364.69;;;25.10;33.14
22389;BME280;11362;48.102;11.620;2024-02-15T12:46:32;95373.75;;;25.14;33.31
22389;BME280;11362;48.102;11.620;2024-02-15T12:49:09;95369.47;;;25.09;33.32
22389;BME280;11362;48.102;11.620;2024-02-15T12:51:34;95376.13;;;25.15;33.40
22389;BME280;11362;48.102;11.620;2024-02-15T12:54:09;95370.06;;;25.20;33.28